Toyofukumaru — JD2177 — position and weather

sailwx.info

Track history (hours):
 
Tides and Currents Weather Stations Pressure Air Temp Water Temp Dewpoint Dewpoint Depression Visibility Wind Speed Wind Dir Waves Ship Positions

Toyofukumaru

Last reported at 2017-Mar-25 17:14 UTC. Time now 2017-Mar-26 05:34 UTC.
Position N 34°02' E 132°47'.

Length 165 m; draft 6.2 m.

Type: Cargo ship. MMSI: 431200688.

Date/timePositionNaut miles runAvg speedWind from/ knotsBaromVisibWave heightAir tempDewpointWater temp
2017-Mar-25 17:14N 34°02' E 132°47'1217.7
2017-Mar-25 16:34N 33°53' E 132°37'1818.1
2017-Mar-25 15:34N 33°43' E 132°18'9 0.4
2017-Mar-24 16:09N 33°42' E 132°08'1017.7
2017-Mar-24 15:33N 33°45' E 132°20'1817.6
2017-Mar-24 14:33N 33°55' E 132°38'116 7.2
2017-Mar-23 22:31N 34°34' E 134°50'1313.0
2017-Mar-23 21:33N 34°29' E 135°04'1919.5
2017-Mar-23 20:33N 34°10' E 134°59'219 7.2
2017-Mar-22 14:17N 34°51' E 139°20'1520.7
2017-Mar-22 13:34N 35°01' E 139°34'1717.2
2017-Mar-22 12:33N 35°15' E 139°46'1110.7
2017-Mar-22 11:33N 35°23' E 139°39'0 0.0
2017-Mar-22 10:32N 35°23' E 139°39'0 0.0
2017-Mar-22 09:32N 35°23' E 139°39'0 0.0
2017-Mar-22 08:32N 35°23' E 139°39'0 0.0
2017-Mar-22 07:32N 35°23' E 139°39'0 0.0
2017-Mar-22 06:32N 35°23' E 139°39'0 0.0
2017-Mar-22 05:33N 35°23' E 139°39'9 8.6
2017-Mar-22 04:33N 35°27' E 139°48'1515.1
2017-Mar-22 03:33N 35°35' E 140°04'1 1.0
2017-Mar-22 02:21N 35°36' E 140°05'0 0.0
2017-Mar-22 01:03N 35°36' E 140°05'0 0.0
2017-Mar-22 00:27N 35°36' E 140°05'0 0.0
2017-Mar-21 23:27N 35°36' E 140°05'0 0.0
2017-Mar-21 22:33N 35°36' E 140°05'0 0.0
2017-Mar-21 21:33N 35°36' E 140°05'0 0.0
2017-Mar-21 20:33N 35°36' E 140°05'1010.4
2017-Mar-21 19:34N 35°30' E 139°54'1414.2
2017-Mar-21 18:34N 35°19' E 139°44'1313.2
2017-Mar-21 17:33N 35°06' E 139°43'1918.9
2017-Mar-21 16:33N 34°54' E 139°26'226 7.5
2017-Mar-20 10:33N 34°02' E 134°59'2120.8
2017-Mar-20 09:33N 34°23' E 134°60'1312.7
2017-Mar-20 08:34N 34°35' E 134°54'121 7.5
2017-Mar-19 16:33N 33°53' E 132°37'2120.4
2017-Mar-19 15:33N 33°43' E 132°16'138 3.7
2017-Mar-18 02:05N 34°34' E 134°50'1019.4
2017-Mar-18 01:33N 34°37' E 135°03'1312.6
2017-Mar-18 00:33N 34°30' E 135°16'0 0.4
2017-Mar-17 23:32N 34°30' E 135°15'1818.4
2017-Mar-17 22:33N 34°17' E 134°59'1919.2
2017-Mar-17 21:33N 33°58' E 134°59'223 7.3
2017-Mar-16 15:13N 34°52' E 139°21'1319.5
2017-Mar-16 14:33N 35°00' E 139°33'1817.4
2017-Mar-16 13:33N 35°14' E 139°46'1111.2
2017-Mar-16 12:33N 35°24' E 139°39'0 0.2
2017-Mar-16 11:32N 35°23' E 139°39'0 0.0
2017-Mar-16 10:32N 35°23' E 139°39'0 0.0
2017-Mar-16 09:32N 35°23' E 139°39'0 0.0
2017-Mar-16 08:32N 35°23' E 139°39'0 0.0
2017-Mar-16 07:32N 35°23' E 139°39'0 0.0
2017-Mar-16 06:32N 35°23' E 139°39'0 0.0
2017-Mar-16 05:32N 35°23' E 139°39'6 5.8
2017-Mar-16 04:33N 35°26' E 139°45'1918.3
2017-Mar-16 03:32N 35°36' E 140°05'1 0.1
2017-Mar-15 20:26N 35°36' E 140°06'1112.8
2017-Mar-15 19:33N 35°30' E 139°54'1413.9
2017-Mar-15 18:33N 35°18' E 139°44'1414.2
2017-Mar-15 17:33N 35°04' E 139°42'  
Track history (hours):
 
Tides and Currents Weather Stations Pressure Air Temp Water Temp Dewpoint Dewpoint Depression Visibility Wind Speed Wind Dir Waves Ship Positions

Toyofukumaru

Last reported at 2017-Mar-25 17:14 UTC. Time now 2017-Mar-26 05:34 UTC.
Position N 34°02' E 132°47'.

Length 165 m; draft 6.2 m.

Type: Cargo ship. MMSI: 431200688.

Date/timePositionNaut miles runAvg speedWind from/ knotsBaromVisibWave heightAir tempDewpointWater temp
2017-Mar-25 17:14N 34°02' E 132°47'1217.7
2017-Mar-25 16:34N 33°53' E 132°37'1818.1
2017-Mar-25 15:34N 33°43' E 132°18'9 0.4
2017-Mar-24 16:09N 33°42' E 132°08'1017.7
2017-Mar-24 15:33N 33°45' E 132°20'1817.6
2017-Mar-24 14:33N 33°55' E 132°38'116 7.2
2017-Mar-23 22:31N 34°34' E 134°50'1313.0
2017-Mar-23 21:33N 34°29' E 135°04'1919.5
2017-Mar-23 20:33N 34°10' E 134°59'219 7.2
2017-Mar-22 14:17N 34°51' E 139°20'1520.7
2017-Mar-22 13:34N 35°01' E 139°34'1717.2
2017-Mar-22 12:33N 35°15' E 139°46'1110.7
2017-Mar-22 11:33N 35°23' E 139°39'0 0.0
2017-Mar-22 10:32N 35°23' E 139°39'0 0.0
2017-Mar-22 09:32N 35°23' E 139°39'0 0.0
2017-Mar-22 08:32N 35°23' E 139°39'0 0.0
2017-Mar-22 07:32N 35°23' E 139°39'0 0.0
2017-Mar-22 06:32N 35°23' E 139°39'0 0.0
2017-Mar-22 05:33N 35°23' E 139°39'9 8.6
2017-Mar-22 04:33N 35°27' E 139°48'1515.1
2017-Mar-22 03:33N 35°35' E 140°04'1 1.0
2017-Mar-22 02:21N 35°36' E 140°05'0 0.0
2017-Mar-22 01:03N 35°36' E 140°05'0 0.0
2017-Mar-22 00:27N 35°36' E 140°05'0 0.0
2017-Mar-21 23:27N 35°36' E 140°05'0 0.0
2017-Mar-21 22:33N 35°36' E 140°05'0 0.0
2017-Mar-21 21:33N 35°36' E 140°05'0 0.0
2017-Mar-21 20:33N 35°36' E 140°05'1010.4
2017-Mar-21 19:34N 35°30' E 139°54'1414.2
2017-Mar-21 18:34N 35°19' E 139°44'1313.2
2017-Mar-21 17:33N 35°06' E 139°43'1918.9
2017-Mar-21 16:33N 34°54' E 139°26'226 7.5
2017-Mar-20 10:33N 34°02' E 134°59'2120.8
2017-Mar-20 09:33N 34°23' E 134°60'1312.7
2017-Mar-20 08:34N 34°35' E 134°54'121 7.5
2017-Mar-19 16:33N 33°53' E 132°37'2120.4
2017-Mar-19 15:33N 33°43' E 132°16'138 3.7
2017-Mar-18 02:05N 34°34' E 134°50'1019.4
2017-Mar-18 01:33N 34°37' E 135°03'1312.6
2017-Mar-18 00:33N 34°30' E 135°16'0 0.4
2017-Mar-17 23:32N 34°30' E 135°15'1818.4
2017-Mar-17 22:33N 34°17' E 134°59'1919.2
2017-Mar-17 21:33N 33°58' E 134°59'223 7.3
2017-Mar-16 15:13N 34°52' E 139°21'1319.5
2017-Mar-16 14:33N 35°00' E 139°33'1817.4
2017-Mar-16 13:33N 35°14' E 139°46'1111.2
2017-Mar-16 12:33N 35°24' E 139°39'0 0.2
2017-Mar-16 11:32N 35°23' E 139°39'0 0.0
2017-Mar-16 10:32N 35°23' E 139°39'0 0.0
2017-Mar-16 09:32N 35°23' E 139°39'0 0.0
2017-Mar-16 08:32N 35°23' E 139°39'0 0.0
2017-Mar-16 07:32N 35°23' E 139°39'0 0.0
2017-Mar-16 06:32N 35°23' E 139°39'0 0.0
2017-Mar-16 05:32N 35°23' E 139°39'6 5.8
2017-Mar-16 04:33N 35°26' E 139°45'1918.3
2017-Mar-16 03:32N 35°36' E 140°05'1 0.1
2017-Mar-15 20:26N 35°36' E 140°06'1112.8
2017-Mar-15 19:33N 35°30' E 139°54'1413.9
2017-Mar-15 18:33N 35°18' E 139°44'1414.2
2017-Mar-15 17:33N 35°04' E 139°42'  

Dump ship's entire track history